Apopka, Florida
Current Conditions -  °F | °C
As of 11:53 PM on Sunday 21 Dec 2014 (Local Time) from KORL Reporting Station
Moderate Rain Moderate Rain  
Wind Chill: 68°   Ceiling: 400
Heat Index: 68°   Visibility: 2.5mi
Dew Point: 66°   Wind: 6mph
Humidity: 93%   Direction: 330°NNW
Pressure: 30.06"   Gusts: NA
Location:  28.67°N, 81.51°W
Report Text: KORL 220453Z AUTO 33005KT 2 1/2SM RA BR BKN004 BKN029 OVC080 20/19 A3006 RMK AO2 RAB22 SLP182 P0007 T02000189 402610161
Loading
Personal Weather Stations






























Interactive Weather Map New forecast layout! Learn more

10-Day Weather Forecast

Advertisements
Track Severe Weather on mobile